Time;durP1;ratioP1;P1;durP2;ratioP2;P2;SDS_P1;SDS_P2;PMS_P1;PMS_P2;Temp;Humidity;BMP_temperature;BMP_pressure;BME280_temperature;BME280_humidity;BME280_pressure;Samples;Min_cycle;Max_cycle;Signal;HPM_P1;HPM_P2
2021/03/31 00:01:42;;;;;;;9.95;3.90;;;12.80;77.60;;;;;;5008552;28;20060;-69
2021/03/31 00:04:09;;;;;;;8.80;3.30;;;12.80;78.10;;;;;;5018724;28;20042;-70
2021/03/31 00:06:35;;;;;;;6.90;3.22;;;12.70;78.60;;;;;;5021276;28;20103;-69
2021/03/31 00:09:02;;;;;;;6.90;2.83;;;12.60;78.30;;;;;;5017001;28;20034;-70
2021/03/31 00:11:29;;;;;;;7.63;3.10;;;12.50;78.90;;;;;;5022564;28;20037;-69
2021/03/31 00:13:57;;;;;;;5.68;2.80;;;12.50;79.50;;;;;;5023203;28;20069;-70
2021/03/31 00:16:24;;;;;;;9.32;2.83;;;12.40;79.60;;;;;;5022684;28;20372;-69
2021/03/31 00:18:51;;;;;;;8.73;4.38;;;12.30;80.60;;;;;;5012182;28;20053;-69
2021/03/31 00:21:17;;;;;;;9.85;3.63;;;12.20;81.10;;;;;;5022310;28;20064;-69
2021/03/31 00:23:44;;;;;;;8.18;3.45;;;12.10;81.70;;;;;;5019456;28;20042;-69
2021/03/31 00:26:11;;;;;;;9.20;4.18;;;12.10;82.10;;;;;;5027444;28;20120;-69
2021/03/31 00:28:37;;;;;;;10.10;4.53;;;12.10;82.60;;;;;;5024996;28;20046;-69
2021/03/31 00:31:05;;;;;;;8.60;4.03;;;12.00;82.80;;;;;;5022125;28;20041;-70
2021/03/31 00:33:31;;;;;;;13.00;5.57;;;11.90;83.00;;;;;;5019154;28;20489;-69
2021/03/31 00:35:58;;;;;;;10.25;4.57;;;11.90;83.50;;;;;;5030642;28;20183;-69
2021/03/31 00:38:25;;;;;;;11.48;5.03;;;11.90;82.80;;;;;;5013787;28;20046;-69
2021/03/31 00:40:53;;;;;;;10.57;4.05;;;11.80;82.50;;;;;;5027730;28;20050;-69
2021/03/31 00:43:22;;;;;;;9.90;4.07;;;11.90;82.30;;;;;;5009252;28;20054;-69
2021/03/31 00:45:49;;;;;;;13.55;4.38;;;11.80;83.10;;;;;;5023207;28;20034;-69
2021/03/31 00:48:16;;;;;;;9.50;3.75;;;11.70;83.40;;;;;;5029772;28;20406;-70
2021/03/31 00:50:44;;;;;;;10.85;4.40;;;11.70;84.10;;;;;;5019268;28;20046;-69
2021/03/31 00:53:14;;;;;;;8.25;3.42;;;11.70;83.70;;;;;;5020749;28;20033;-69
2021/03/31 00:55:40;;;;;;;8.43;4.05;;;11.70;83.30;;;;;;5020298;28;20046;-69
2021/03/31 00:58:08;;;;;;;8.18;3.72;;;11.60;83.50;;;;;;5019768;28;20072;-69
2021/03/31 01:00:35;;;;;;;9.98;5.20;;;11.50;84.20;;;;;;5026356;28;20061;-69
2021/03/31 01:03:03;;;;;;;8.57;4.97;;;11.50;84.20;;;;;;5000305;28;20041;-69
2021/03/31 01:05:31;;;;;;;14.02;4.88;;;11.50;84.20;;;;;;5021632;28;20065;-69
2021/03/31 01:07:58;;;;;;;11.77;5.30;;;11.50;84.40;;;;;;5034801;28;20042;-69
2021/03/31 01:10:29;;;;;;;10.77;4.45;;;11.50;84.70;;;;;;5018427;28;20084;-69
2021/03/31 01:13:20;;;;;;;12.77;4.82;;;11.40;85.10;;;;;;5026357;28;20053;-70
2021/03/31 01:15:55;;;;;;;10.57;4.32;;;11.40;85.70;;;;;;5030256;28;20063;-69
2021/03/31 01:19:00;;;;;;;9.52;4.88;;;11.40;85.70;;;;;;5014236;28;20120;-69
2021/03/31 01:22:00;;;;;;;8.60;4.47;;;11.30;86.10;;;;;;5015143;28;20115;-69
2021/03/31 01:24:41;;;;;;;12.05;3.80;;;11.40;86.90;;;;;;5024965;28;20517;-69
2021/03/31 01:27:16;;;;;;;9.32;4.00;;;11.30;86.90;;;;;;5026189;28;20583;-70
2021/03/31 01:30:07;;;;;;;9.40;4.20;;;11.30;87.20;;;;;;5018817;28;20038;-69
2021/03/31 01:32:34;;;;;;;7.38;3.95;;;11.30;87.10;;;;;;5027540;28;20037;-69
2021/03/31 01:35:07;;;;;;;9.18;3.88;;;11.30;87.10;;;;;;5021278;28;20073;-69
2021/03/31 01:37:36;;;;;;;;;;;11.40;86.20;;;;;;5022981;28;20424;-69
2021/03/31 01:40:07;;;;;;;8.68;3.83;;;11.40;86.50;;;;;;5018945;28;19937;-69
2021/03/31 01:42:38;;;;;;;10.20;4.75;;;11.40;86.40;;;;;;5059364;28;20437;-69
2021/03/31 01:45:08;;;;;;;10.35;4.70;;;11.30;86.80;;;;;;5021453;28;20446;-69
2021/03/31 01:47:39;;;;;;;9.90;4.40;;;11.30;86.50;;;;;;5022491;28;20033;-70
2021/03/31 01:50:08;;;;;;;8.48;4.53;;;11.30;87.10;;;;;;5017578;28;20042;-69
2021/03/31 01:52:38;;;;;;;9.98;4.82;;;11.20;87.40;;;;;;5033578;28;20805;-69
2021/03/31 01:55:06;;;;;;;11.07;4.53;;;11.20;87.50;;;;;;5017902;28;20396;-69
2021/03/31 01:57:34;;;;;;;10.43;4.07;;;11.20;87.30;;;;;;5058823;28;20405;-69
2021/03/31 02:00:05;;;;;;;10.85;3.83;;;11.10;87.90;;;;;;5023678;28;20121;-69
2021/03/31 02:02:40;;;;;;;9.38;3.45;;;11.10;88.40;;;;;;5013049;28;20042;-69
2021/03/31 02:05:10;;;;;;;11.07;3.92;;;11.10;88.20;;;;;;5020135;28;20452;-69
2021/03/31 02:07:39;;;;;;;11.57;4.25;;;11.10;88.50;;;;;;5025675;28;20037;-69
2021/03/31 02:10:10;;;;;;;11.38;4.53;;;11.00;88.50;;;;;;5019224;28;20382;-69
2021/03/31 02:12:38;;;;;;;12.65;4.35;;;11.00;88.70;;;;;;5018921;28;20492;-69
2021/03/31 02:15:06;;;;;;;12.45;4.47;;;10.90;89.10;;;;;;5013260;28;20046;-69
2021/03/31 02:17:34;;;;;;;10.00;3.97;;;10.90;89.90;;;;;;5020611;28;20049;-69
2021/03/31 02:20:03;;;;;;;8.50;4.00;;;10.90;89.80;;;;;;5028937;28;20049;-69
2021/03/31 02:22:32;;;;;;;10.68;4.03;;;10.90;89.90;;;;;;5025612;28;20049;-69
2021/03/31 02:25:00;;;;;;;9.20;4.93;;;10.90;89.50;;;;;;5018876;28;20107;-69
2021/03/31 02:27:27;;;;;;;9.93;5.07;;;10.90;89.40;;;;;;5003798;28;20420;-69
2021/03/31 02:29:53;;;;;;;12.98;5.40;;;11.00;89.50;;;;;;5021923;28;20052;-69
2021/03/31 02:32:23;;;;;;;10.32;3.95;;;11.00;89.70;;;;;;5003839;28;20042;-69
2021/03/31 02:34:53;;;;;;;9.50;4.35;;;11.10;89.30;;;;;;5028823;28;20045;-70
2021/03/31 02:37:21;;;;;;;10.57;5.00;;;11.10;89.30;;;;;;5005262;28;20049;-69
2021/03/31 02:39:50;;;;;;;9.23;4.55;;;11.10;89.00;;;;;;5021771;28;20050;-69
2021/03/31 02:42:20;;;;;;;11.57;5.53;;;11.10;88.80;;;;;;5034007;28;20048;-69
2021/03/31 02:44:49;;;;;;;13.68;4.78;;;11.10;89.10;;;;;;5027935;28;20064;-69
2021/03/31 02:47:20;;;;;;;13.75;4.88;;;11.10;89.40;;;;;;5012445;28;20089;-69
2021/03/31 02:49:50;;;;;;;12.05;5.30;;;11.00;90.00;;;;;;5030334;28;20050;-69
2021/03/31 02:52:19;;;;;;;17.40;5.50;;;10.90;89.70;;;;;;5024776;28;20045;-70
2021/03/31 02:54:48;;;;;;;10.80;5.43;;;10.90;90.00;;;;;;5015644;28;20048;-69
2021/03/31 02:57:16;;;;;;;10.55;4.50;;;10.80;90.30;;;;;;5013708;28;20042;-69
2021/03/31 02:59:44;;;;;;;17.10;5.88;;;10.80;90.50;;;;;;5013759;28;20049;-69
2021/03/31 03:02:11;;;;;;;13.40;5.72;;;10.90;90.30;;;;;;5022525;28;20072;-69
2021/03/31 03:04:38;;;;;;;14.45;5.22;;;10.80;90.40;;;;;;5017551;28;20057;-69
2021/03/31 03:07:06;;;;;;;14.77;5.57;;;10.90;90.50;;;;;;5014775;28;20045;-70
2021/03/31 03:09:34;;;;;;;15.15;6.13;;;10.80;90.50;;;;;;5027675;28;20060;-69
2021/03/31 03:12:02;;;;;;;14.05;6.00;;;10.80;90.50;;;;;;5028842;28;20034;-69
2021/03/31 03:14:30;;;;;;;14.55;5.95;;;10.70;90.50;;;;;;5012125;28;20048;-69
2021/03/31 03:16:56;;;;;;;17.55;6.88;;;10.60;90.90;;;;;;5010029;28;20512;-69
2021/03/31 03:19:23;;;;;;;18.98;6.82;;;10.60;91.00;;;;;;5017355;28;20485;-70
2021/03/31 03:21:51;;;;;;;16.63;6.22;;;10.60;91.00;;;;;;5020693;28;20417;-69
2021/03/31 03:24:18;;;;;;;15.73;5.95;;;10.60;90.90;;;;;;5020508;28;20049;-69
2021/03/31 03:26:45;;;;;;;17.33;5.93;;;10.50;91.00;;;;;;5000434;28;20080;-69
2021/03/31 03:29:12;;;;;;;12.48;6.10;;;10.50;91.20;;;;;;5011691;28;20046;-69
2021/03/31 03:31:39;;;;;;;13.70;6.22;;;10.60;91.10;;;;;;5011215;28;20508;-69
2021/03/31 03:34:07;;;;;;;10.98;5.28;;;10.50;91.20;;;;;;5027755;28;20052;-70
2021/03/31 03:36:35;;;;;;;10.88;5.05;;;10.40;91.70;;;;;;5012617;28;20516;-69
2021/03/31 03:39:04;;;;;;;13.43;5.60;;;10.30;92.30;;;;;;5013056;28;20394;-69
2021/03/31 03:41:30;;;;;;;11.50;5.35;;;10.30;92.60;;;;;;5013111;28;20050;-69
2021/03/31 03:43:57;;;;;;;14.18;5.10;;;10.40;92.60;;;;;;5023450;28;20533;-70
2021/03/31 03:46:29;;;;;;;12.25;5.43;;;10.40;92.00;;;;;;5024075;28;20033;-69
2021/03/31 03:48:57;;;;;;;9.93;4.32;;;10.50;92.20;;;;;;5019537;28;20091;-69
2021/03/31 03:51:25;;;;;;;12.38;5.10;;;10.50;92.20;;;;;;5024268;28;20046;-69
2021/03/31 03:53:52;;;;;;;9.95;4.72;;;10.60;92.40;;;;;;5051526;28;20029;-69
2021/03/31 03:56:20;;;;;;;13.10;5.53;;;10.70;91.60;;;;;;5020701;28;20048;-69
2021/03/31 03:58:47;;;;;;;13.93;6.03;;;10.80;91.30;;;;;;5027550;28;20056;-69
2021/03/31 04:01:14;;;;;;;23.65;6.22;;;10.70;91.30;;;;;;5027462;28;20538;-69
2021/03/31 04:03:41;;;;;;;15.20;6.20;;;10.80;91.70;;;;;;5017506;28;20045;-69
2021/03/31 04:06:09;;;;;;;15.57;6.72;;;10.80;91.60;;;;;;5009094;28;20038;-69
2021/03/31 04:08:36;;;;;;;14.43;6.25;;;10.80;91.40;;;;;;5018374;28;20448;-69
2021/03/31 04:11:05;;;;;;;17.10;6.75;;;10.80;91.40;;;;;;5021910;28;20045;-70
2021/03/31 04:13:34;;;;;;;14.32;5.63;;;10.90;91.20;;;;;;5023713;28;20492;-69
2021/03/31 04:16:10;;;;;;;15.57;5.78;;;11.00;91.00;;;;;;5022612;28;20052;-69
2021/03/31 04:18:38;;;;;;;15.50;5.95;;;11.00;90.70;;;;;;5022081;28;20060;-69
2021/03/31 04:21:08;;;;;;;13.90;6.60;;;11.00;90.90;;;;;;5014940;28;20046;-70
2021/03/31 04:23:35;;;;;;;15.65;6.43;;;11.00;91.30;;;;;;5015810;28;20061;-69
2021/03/31 04:26:01;;;;;;;12.30;5.65;;;11.10;91.10;;;;;;5022079;28;20616;-69
2021/03/31 04:28:29;;;;;;;17.35;6.35;;;11.20;90.80;;;;;;5018949;28;20501;-70
2021/03/31 04:30:57;;;;;;;14.82;5.63;;;11.20;91.00;;;;;;5021927;28;20391;-69
2021/03/31 04:33:25;;;;;;;14.77;6.85;;;11.30;90.90;;;;;;5018577;28;20045;-70
2021/03/31 04:35:54;;;;;;;22.63;8.63;;;11.30;90.50;;;;;;5006536;28;20038;-69
2021/03/31 04:38:21;;;;;;;16.08;7.80;;;11.30;90.50;;;;;;5029481;28;20064;-69
2021/03/31 04:40:55;;;;;;;27.50;9.52;;;11.30;90.50;;;;;;5018208;28;20049;-69
2021/03/31 04:43:24;;;;;;;19.73;8.88;;;11.30;90.30;;;;;;5032523;28;20492;-69
2021/03/31 04:45:54;;;;;;;18.40;8.13;;;11.30;90.80;;;;;;5021902;28;20045;-69
2021/03/31 04:48:21;;;;;;;23.40;9.13;;;11.30;90.70;;;;;;5043814;28;20683;-69
2021/03/31 04:50:47;;;;;;;20.80;8.63;;;11.30;90.60;;;;;;5041587;28;20092;-69
2021/03/31 04:53:14;;;;;;;18.20;8.40;;;11.40;90.90;;;;;;5017355;28;20057;-69
2021/03/31 04:55:41;;;;;;;18.80;8.85;;;11.30;91.10;;;;;;5022156;28;20125;-69
2021/03/31 04:58:07;;;;;;;20.52;8.68;;;11.30;91.00;;;;;;5028933;28;20056;-69
2021/03/31 05:00:34;;;;;;;19.95;8.27;;;11.40;90.90;;;;;;5014500;28;20115;-69
2021/03/31 05:03:00;;;;;;;17.60;7.60;;;11.40;90.70;;;;;;5025858;28;20076;-69
2021/03/31 05:05:27;;;;;;;19.23;7.72;;;11.50;91.00;;;;;;5023402;28;20042;-69
2021/03/31 05:07:53;;;;;;;18.02;6.82;;;11.50;91.10;;;;;;5026147;28;20363;-69
2021/03/31 05:10:20;;;;;;;15.60;6.72;;;11.60;90.90;;;;;;5013283;28;20112;-69
2021/03/31 05:12:46;;;;;;;18.65;7.07;;;11.60;90.80;;;;;;5015785;28;20108;-69
2021/03/31 05:15:14;;;;;;;17.27;6.47;;;11.70;90.80;;;;;;5012346;28;20050;-69
2021/03/31 05:17:40;;;;;;;14.25;7.13;;;11.70;90.40;;;;;;5022018;28;20108;-69
2021/03/31 05:20:07;;;;;;;20.73;8.50;;;11.80;90.60;;;;;;5021349;28;20705;-69
2021/03/31 05:22:34;;;;;;;17.08;8.23;;;11.70;90.30;;;;;;5013794;28;20054;-69
2021/03/31 05:25:00;;;;;;;20.58;9.10;;;11.80;90.10;;;;;;5014021;28;20042;-69
2021/03/31 05:27:27;;;;;;;19.02;8.05;;;11.80;90.20;;;;;;5013985;28;20524;-69
2021/03/31 05:29:53;;;;;;;23.63;8.45;;;11.90;90.30;;;;;;5026104;28;20038;-69
2021/03/31 05:32:20;;;;;;;24.10;8.23;;;12.00;89.20;;;;;;5022915;28;20084;-69
2021/03/31 05:34:46;;;;;;;18.27;7.15;;;12.00;88.80;;;;;;5025229;28;20928;-69
2021/03/31 05:37:13;;;;;;;15.60;7.65;;;11.90;88.90;;;;;;5030072;28;20076;-69
2021/03/31 05:39:39;;;;;;;21.65;8.15;;;11.90;89.20;;;;;;5031113;28;20053;-69
2021/03/31 05:42:10;;;;;;;20.55;8.43;;;11.90;90.40;;;;;;5026831;28;20421;-69
2021/03/31 05:44:38;;;;;;;27.10;8.65;;;11.90;90.20;;;;;;5026281;28;20436;-69
2021/03/31 05:47:07;;;;;;;24.33;9.77;;;12.00;90.30;;;;;;5025913;28;20427;-70
2021/03/31 05:49:34;;;;;;;24.63;10.48;;;12.10;89.70;;;;;;5023336;28;20045;-69
2021/03/31 05:52:00;;;;;;;23.42;10.32;;;12.20;89.50;;;;;;5016522;28;20053;-69
2021/03/31 05:54:27;;;;;;;21.45;10.50;;;12.20;89.70;;;;;;5014946;28;20494;-70
2021/03/31 05:56:54;;;;;;;20.23;9.43;;;12.30;89.00;;;;;;5020500;28;20046;-69
2021/03/31 05:59:22;;;;;;;22.52;8.77;;;12.40;88.40;;;;;;5012801;28;20096;-69
2021/03/31 06:01:49;;;;;;;16.95;8.07;;;12.50;87.30;;;;;;5018638;28;20068;-69
2021/03/31 06:04:17;;;;;;;15.85;7.85;;;12.50;87.00;;;;;;5022511;28;20811;-70
2021/03/31 06:06:43;;;;;;;19.98;7.82;;;12.50;86.10;;;;;;5023007;28;20095;-69
2021/03/31 06:09:10;;;;;;;17.30;7.20;;;12.70;84.80;;;;;;5019780;28;20034;-69
2021/03/31 06:12:09;;;;;;;17.10;7.80;;;12.70;85.70;;;;;;5022428;28;20041;-69
2021/03/31 06:14:40;;;;;;;14.48;6.72;;;12.80;83.60;;;;;;5002889;28;20050;-69
2021/03/31 06:17:11;;;;;;;16.63;6.68;;;12.80;83.80;;;;;;4990459;28;20062;-69
2021/03/31 06:19:44;;;;;;;17.00;7.37;;;12.90;83.30;;;;;;4993647;28;20049;-69
2021/03/31 06:24:58;;;;;;;19.48;8.30;;;13.10;81.20;;;;;;5008953;28;20058;-69
2021/03/31 06:27:29;;;;;;;22.75;9.45;;;13.20;80.10;;;;;;4978295;28;20049;-69
2021/03/31 06:30:05;;;;;;;21.67;8.00;;;13.20;80.60;;;;;;4991576;28;20594;-69
2021/03/31 06:32:39;;;;;;;19.33;8.73;;;13.20;81.20;;;;;;5007610;28;20053;-69
2021/03/31 06:35:17;;;;;;;22.70;8.98;;;13.40;80.00;;;;;;5007929;28;20497;-69
2021/03/31 06:37:44;;;;;;;18.10;8.38;;;13.40;79.30;;;;;;5010173;28;20054;-69
2021/03/31 06:40:57;;;;;;;19.02;6.88;;;13.50;79.20;;;;;;4993467;28;20447;-69
2021/03/31 06:43:36;;;;;;;19.90;8.02;;;13.50;78.00;;;;;;5022242;28;20117;-69
2021/03/31 06:46:11;;;;;;;15.02;7.90;;;13.50;79.00;;;;;;5009357;28;20038;-69
2021/03/31 06:48:47;;;;;;;23.55;9.63;;;13.60;78.40;;;;;;5009280;28;20050;-69
2021/03/31 06:51:30;;;;;;;22.10;8.30;;;13.70;77.50;;;;;;5015485;28;20077;-69
2021/03/31 06:54:15;;;;;;;15.82;6.70;;;13.80;77.80;;;;;;5023951;28;20049;-69
2021/03/31 06:56:44;;;;;;;12.30;6.00;;;13.90;77.20;;;;;;5052079;28;20050;-69
2021/03/31 06:59:12;;;;;;;13.35;5.50;;;14.00;76.90;;;;;;5021416;28;20129;-69
2021/03/31 07:01:40;;;;;;;14.20;6.07;;;14.00;76.50;;;;;;5013420;28;20588;-69
2021/03/31 07:04:07;;;;;;;14.13;6.03;;;14.00;76.10;;;;;;5018362;28;20055;-69
2021/03/31 07:06:34;;;;;;;12.38;5.70;;;14.20;76.80;;;;;;5024932;28;20046;-69
2021/03/31 07:09:01;;;;;;;14.68;5.65;;;14.20;75.50;;;;;;5018621;28;20103;-69
2021/03/31 07:11:40;;;;;;;14.32;6.07;;;14.30;76.00;;;;;;5019983;28;20046;-69
2021/03/31 07:14:10;;;;;;;21.85;5.55;;;14.30;75.20;;;;;;5018528;28;20060;-69
2021/03/31 07:16:40;;;;;;;12.13;4.85;;;14.40;74.30;;;;;;5015797;28;20041;-69
2021/03/31 07:19:07;;;;;;;14.13;5.43;;;14.50;75.70;;;;;;5042015;28;20050;-69
2021/03/31 07:21:55;;;;;;;16.85;5.45;;;14.60;75.60;;;;;;5014994;28;20103;-69
2021/03/31 07:24:21;;;;;;;11.25;4.35;;;14.80;74.00;;;;;;5019038;28;20076;-69
2021/03/31 07:26:48;;;;;;;11.25;5.32;;;14.80;73.30;;;;;;5017810;28;20829;-69
2021/03/31 07:29:18;;;;;;;12.98;4.85;;;14.80;73.30;;;;;;5018869;28;20045;-70
2021/03/31 07:31:46;;;;;;;11.07;5.20;;;14.90;73.70;;;;;;5022583;28;20500;-69
2021/03/31 07:34:27;;;;;;;18.83;6.07;;;15.10;72.70;;;;;;5028350;28;20091;-69
2021/03/31 07:36:54;;;;;;;14.15;5.13;;;15.20;72.20;;;;;;5028465;28;20484;-70
2021/03/31 07:39:27;;;;;;;15.02;5.53;;;15.20;73.80;;;;;;5025301;28;20064;-69
2021/03/31 07:41:56;;;;;;;8.85;3.95;;;15.20;71.80;;;;;;5011600;28;20429;-69
2021/03/31 07:44:29;;;;;;;8.18;3.83;;;15.40;69.00;;;;;;5030457;28;20052;-69
2021/03/31 07:46:56;;;;;;;10.35;5.18;;;15.30;68.80;;;;;;5022428;28;20041;-71
2021/03/31 07:49:25;;;;;;;8.75;4.47;;;15.30;69.20;;;;;;5019215;28;20409;-71
2021/03/31 07:52:03;;;;;;;8.77;4.85;;;15.40;68.20;;;;;;5022188;28;20066;-71
2021/03/31 07:54:31;;;;;;;10.40;4.85;;;15.40;68.20;;;;;;5007607;28;20045;-71
2021/03/31 07:57:18;;;;;;;6.32;4.15;;;15.40;67.80;;;;;;5025222;28;20144;-71
2021/03/31 07:59:45;;;;;;;9.27;4.93;;;15.40;67.70;;;;;;5021950;28;20045;-71
2021/03/31 08:02:11;;;;;;;10.07;5.38;;;15.60;68.40;;;;;;5028111;28;20061;-71
2021/03/31 08:04:39;;;;;;;13.38;5.35;;;15.70;67.90;;;;;;5019347;28;20485;-71
2021/03/31 08:07:24;;;;;;;9.20;4.72;;;15.70;68.00;;;;;;5027411;28;20558;-71
2021/03/31 08:09:51;;;;;;;12.45;4.50;;;15.80;67.20;;;;;;5006722;28;20038;-71
2021/03/31 08:12:29;;;;;;;9.25;4.32;;;15.90;66.20;;;;;;5023625;28;20038;-71
2021/03/31 08:14:56;;;;;;;10.80;5.53;;;15.90;66.10;;;;;;5020841;28;20133;-71
2021/03/31 08:17:42;;;;;;;14.02;4.68;;;15.80;66.50;;;;;;5024916;28;20061;-71
2021/03/31 08:20:09;;;;;;;12.32;5.45;;;15.90;65.90;;;;;;5025258;28;20097;-71
2021/03/31 08:22:38;;;;;;;9.98;5.70;;;15.90;66.60;;;;;;5034657;28;20088;-71
2021/03/31 08:25:15;;;;;;;13.43;5.95;;;16.10;68.00;;;;;;5017577;28;20370;-71
2021/03/31 08:27:56;;;;;;;11.30;5.80;;;16.20;66.60;;;;;;5028834;28;20403;-71
2021/03/31 08:30:24;;;;;;;15.57;6.30;;;16.10;66.00;;;;;;5018623;28;20049;-71
2021/03/31 08:32:52;;;;;;;14.18;5.80;;;16.10;66.00;;;;;;5025519;28;20049;-71
2021/03/31 08:35:20;;;;;;;15.50;6.53;;;16.10;66.20;;;;;;5043624;28;20405;-71
2021/03/31 08:37:48;;;;;;;13.05;6.45;;;16.00;66.80;;;;;;5021555;28;20041;-71
2021/03/31 08:40:15;;;;;;;11.85;6.15;;;16.00;66.60;;;;;;5022543;28;20411;-71
2021/03/31 08:43:02;;;;;;;13.02;5.68;;;16.20;66.80;;;;;;5044971;28;20788;-71
2021/03/31 08:45:37;;;;;;;14.68;6.70;;;16.20;66.80;;;;;;5018612;28;20100;-70
2021/03/31 08:48:38;;;;;;;13.23;5.90;;;16.20;64.40;;;;;;5026121;28;20072;-70
2021/03/31 08:51:12;;;;;;;17.15;5.72;;;16.20;64.30;;;;;;5018729;28;20464;-70
2021/03/31 08:53:39;;;;;;;13.60;5.35;;;16.30;65.30;;;;;;5013083;28;20050;-71
2021/03/31 08:56:18;;;;;;;14.98;6.10;;;16.30;64.60;;;;;;5010554;28;20104;-71
2021/03/31 08:58:55;;;;;;;12.05;5.00;;;16.40;65.20;;;;;;5014635;28;20061;-73
2021/03/31 09:01:30;;;;;;;13.30;5.13;;;16.40;64.90;;;;;;5022845;28;20152;-73
2021/03/31 09:04:20;;;;;;;9.93;5.07;;;16.50;65.10;;;;;;5020655;28;20056;-72
2021/03/31 09:06:46;;;;;;;12.90;4.78;;;16.60;64.90;;;;;;5031182;28;20045;-73
2021/03/31 09:09:14;;;;;;;13.50;4.63;;;16.70;64.30;;;;;;5028494;28;20488;-72
2021/03/31 09:11:40;;;;;;;11.90;4.32;;;16.80;65.00;;;;;;5059055;28;20045;-73
2021/03/31 09:14:24;;;;;;;10.63;4.38;;;16.90;64.50;;;;;;5024310;28;20029;-71
2021/03/31 09:17:01;;;;;;;13.25;4.57;;;17.00;63.60;;;;;;5016790;28;20517;-70
2021/03/31 09:19:32;;;;;;;12.77;5.07;;;17.10;63.90;;;;;;5024406;28;20087;-70
2021/03/31 09:22:12;;;;;;;10.65;4.68;;;17.20;63.50;;;;;;5022539;28;20096;-70
2021/03/31 09:25:04;;;;;;;7.57;4.50;;;17.30;64.10;;;;;;5016609;28;20054;-70
2021/03/31 09:27:33;;;;;;;13.18;4.05;;;17.40;63.20;;;;;;5021376;28;20428;-69
2021/03/31 09:30:04;;;;;;;10.85;4.78;;;17.70;63.20;;;;;;5024569;28;20124;-71
2021/03/31 09:32:38;;;;;;;8.68;4.53;;;17.70;62.60;;;;;;5032053;28;20728;-70
2021/03/31 09:35:11;;;;;;;17.15;4.47;;;17.80;62.90;;;;;;5027407;28;20050;-72
2021/03/31 09:37:42;;;;;;;9.00;4.78;;;17.90;62.90;;;;;;5012711;28;20401;-71
2021/03/31 09:40:30;;;;;;;10.85;4.80;;;17.90;62.10;;;;;;5018050;28;20046;-71
2021/03/31 09:43:01;;;;;;;10.57;4.32;;;18.10;62.00;;;;;;5026008;28;20042;-71
2021/03/31 09:45:30;;;;;;;10.52;4.20;;;18.20;62.30;;;;;;5027363;28;20041;-71
2021/03/31 09:47:58;;;;;;;9.73;4.60;;;18.30;62.30;;;;;;5016448;28;20501;-71
2021/03/31 09:50:27;;;;;;;9.65;4.55;;;18.40;61.70;;;;;;5025718;28;20049;-71
2021/03/31 09:52:59;;;;;;;12.55;4.47;;;18.40;61.30;;;;;;5017256;28;20497;-73
2021/03/31 09:55:27;;;;;;;14.25;4.47;;;18.50;61.20;;;;;;5021488;28;20119;-72
2021/03/31 09:57:55;;;;;;;7.00;3.70;;;18.60;61.40;;;;;;5024870;28;20390;-72
2021/03/31 10:00:24;;;;;;;8.43;4.20;;;18.70;60.80;;;;;;5023594;28;20111;-73
2021/03/31 10:02:52;;;;;;;6.20;3.55;;;18.70;61.40;;;;;;5013725;28;20034;-72
2021/03/31 10:05:20;;;;;;;13.18;4.50;;;18.70;61.30;;;;;;5021826;28;20420;-72
2021/03/31 10:08:06;;;;;;;7.55;3.63;;;19.00;60.00;;;;;;5015488;28;20505;-71
2021/03/31 10:10:49;;;;;;;11.32;4.47;;;19.10;60.60;;;;;;5026109;28;20045;-70
2021/03/31 10:13:17;;;;;;;8.40;4.22;;;19.10;59.80;;;;;;5024122;28;20374;-71
2021/03/31 10:15:54;;;;;;;11.40;4.43;;;19.20;60.10;;;;;;5030797;28;20054;-70
2021/03/31 10:18:21;;;;;;;8.38;3.78;;;19.30;60.20;;;;;;5025865;28;20072;-71
2021/03/31 10:20:49;;;;;;;8.80;3.97;;;19.40;59.50;;;;;;5014833;28;20045;-72
2021/03/31 10:23:30;;;;;;;11.57;3.60;;;19.50;59.30;;;;;;5019214;28;20052;-71
2021/03/31 10:26:25;;;;;;;8.88;3.78;;;19.60;59.60;;;;;;5015567;28;20071;-69
2021/03/31 10:28:59;;;;;;;8.25;3.85;;;19.80;59.10;;;;;;5005935;28;20133;-71
2021/03/31 10:31:46;;;;;;;8.07;3.92;;;19.90;59.00;;;;;;5019737;28;20044;-71
2021/03/31 10:34:17;;;;;;;8.27;4.25;;;20.00;58.20;;;;;;5029637;28;20120;-71
2021/03/31 10:48:17;;;;;;;11.60;3.63;;;20.60;57.10;;;;;;5026435;28;20068;-72
2021/03/31 10:53:42;;;;;;;8.20;3.90;;;20.80;56.00;;;;;;5017544;28;20041;-71
2021/03/31 10:56:10;;;;;;;8.70;3.88;;;20.90;56.20;;;;;;5021468;28;20045;-71
2021/03/31 10:58:37;;;;;;;6.93;3.60;;;21.10;55.80;;;;;;5024699;28;20092;-72
2021/03/31 11:01:04;;;;;;;7.00;3.38;;;21.30;56.00;;;;;;5026134;28;20060;-71
2021/03/31 11:03:30;;;;;;;10.70;4.82;;;21.40;54.80;;;;;;5023280;28;20042;-72
2021/03/31 11:05:57;;;;;;;9.90;3.97;;;21.50;55.70;;;;;;5029488;28;20054;-69
2021/03/31 11:08:24;;;;;;;19.85;5.20;;;21.50;55.70;;;;;;5005790;28;20045;-70
2021/03/31 11:10:51;;;;;;;11.57;4.68;;;21.60;55.00;;;;;;5014049;28;20045;-72
2021/03/31 11:13:18;;;;;;;8.43;4.32;;;21.60;54.50;;;;;;5038533;28;20045;-71
2021/03/31 11:15:45;;;;;;;6.97;4.20;;;21.50;54.80;;;;;;5007443;28;20127;-71
2021/03/31 11:26:09;;;;;;;21.23;4.82;;;22.20;55.20;;;;;;5050723;28;20046;-69
2021/03/31 11:28:37;;;;;;;10.98;4.53;;;22.30;53.60;;;;;;5007043;28;20565;-69
2021/03/31 11:31:05;;;;;;;7.85;4.57;;;22.10;54.30;;;;;;5024331;28;20038;-75
2021/03/31 11:33:32;;;;;;;6.75;3.42;;;22.00;53.40;;;;;;5019963;28;20049;-76
2021/03/31 11:35:58;;;;;;;8.57;4.05;;;22.60;54.20;;;;;;5019481;28;20045;-70
2021/03/31 11:38:25;;;;;;;7.72;4.47;;;23.10;51.90;;;;;;5009541;28;20625;-73
2021/03/31 11:40:52;;;;;;;8.93;3.90;;;23.20;51.70;;;;;;5022487;28;20056;-71
2021/03/31 11:43:19;;;;;;;8.82;4.18;;;23.30;51.10;;;;;;5000867;28;20042;-69
2021/03/31 11:45:49;;;;;;;7.82;4.43;;;23.20;51.00;;;;;;5022167;28;20049;-69
2021/03/31 11:48:16;;;;;;;9.43;4.15;;;22.80;51.80;;;;;;5018821;28;20033;-71
2021/03/31 11:50:43;;;;;;;8.18;3.75;;;23.10;52.50;;;;;;5000429;28;20060;-77
2021/03/31 11:53:10;;;;;;;9.38;3.95;;;22.70;51.50;;;;;;4998083;28;22405;-76
2021/03/31 11:55:37;;;;;;;8.20;3.67;;;22.90;52.20;;;;;;5022973;28;20071;-73
2021/03/31 11:58:03;;;;;;;10.70;4.13;;;23.30;53.10;;;;;;5026847;28;20746;-72
2021/03/31 12:00:30;;;;;;;10.05;3.65;;;23.50;50.80;;;;;;5012762;28;20049;-72
2021/03/31 12:02:57;;;;;;;9.82;4.00;;;23.60;50.60;;;;;;5024431;28;20068;-72
2021/03/31 12:05:23;;;;;;;7.60;3.75;;;23.50;50.80;;;;;;5047640;28;20038;-71
2021/03/31 12:07:50;;;;;;;9.77;3.88;;;23.10;51.10;;;;;;5020845;28;20040;-73
2021/03/31 12:10:16;;;;;;;7.00;3.60;;;23.40;51.10;;;;;;4996365;28;20501;-72
2021/03/31 12:12:43;;;;;;;8.35;3.38;;;23.50;50.90;;;;;;5017480;28;20386;-72
2021/03/31 12:15:12;;;;;;;8.20;3.65;;;23.40;49.90;;;;;;5016805;28;20096;-73
2021/03/31 12:17:40;;;;;;;10.88;3.88;;;24.20;50.90;;;;;;5005736;28;20058;-72
2021/03/31 12:20:09;;;;;;;6.60;3.17;;;24.30;48.70;;;;;;5018484;28;20069;-71
2021/03/31 12:22:36;;;;;;;5.47;3.13;;;23.90;48.70;;;;;;5008583;28;20111;-71
2021/03/31 12:25:06;;;;;;;8.65;3.83;;;24.20;48.40;;;;;;5016530;28;20053;-71
2021/03/31 12:27:34;;;;;;;11.63;4.43;;;24.40;48.60;;;;;;5018103;28;20715;-72
2021/03/31 12:30:05;;;;;;;6.45;3.38;;;24.10;49.10;;;;;;5036488;28;20052;-72
2021/03/31 12:32:31;;;;;;;7.13;3.53;;;25.50;47.80;;;;;;5012392;28;20473;-72
2021/03/31 12:34:58;;;;;;;5.90;3.47;;;27.10;45.60;;;;;;5005178;28;20124;-71
2021/03/31 12:37:25;;;;;;;9.18;3.65;;;28.00;44.30;;;;;;5027658;28;20057;-71
2021/03/31 12:39:52;;;;;;;9.98;3.90;;;28.80;42.00;;;;;;5019303;28;20481;-72
2021/03/31 12:42:18;;;;;;;9.48;4.00;;;29.30;42.30;;;;;;5024302;28;20049;-71
2021/03/31 12:44:45;;;;;;;7.28;4.00;;;28.90;41.20;;;;;;5008154;28;20038;-71
2021/03/31 12:47:16;;;;;;;8.80;4.88;;;;;;;;;;5020173;28;20041;-71
2021/03/31 12:49:43;;;;;;;8.20;4.18;;;31.50;49.20;;;;;;5016455;28;20044;-72
2021/03/31 12:52:15;;;;;;;8.98;3.72;;;33.10;37.90;;;;;;5027674;28;20077;-71
2021/03/31 12:55:05;;;;;;;7.90;4.10;;;;;;;;;;5043857;28;20103;-72
2021/03/31 12:57:30;;;;;;;5.85;3.67;;;32.20;45.90;;;;;;5025636;28;20052;-71
2021/03/31 12:59:58;;;;;;;13.07;4.10;;;32.70;37.10;;;;;;5018225;28;20072;-71
2021/03/31 13:02:47;;;;;;;6.22;3.17;;;35.30;35.70;;;;;;5016828;28;20056;-72
2021/03/31 13:05:35;;;;;;;7.78;3.10;;;36.20;33.60;;;;;;5014122;28;20041;-72
2021/03/31 13:08:22;;;;;;;7.50;3.40;;;;;;;;;;5040190;28;20042;-71
2021/03/31 13:11:10;;;;;;;12.93;4.57;;;36.30;31.90;;;;;;5019736;28;20100;-68
2021/03/31 13:16:41;;;;;;;9.68;3.20;;;39.50;30.50;;;;;;5014913;28;20053;-71
2021/03/31 13:24:53;;;;;;;5.00;3.15;;;37.80;30.30;;;;;;5022224;28;20038;-73
2021/03/31 13:27:55;;;;;;;5.82;3.65;;;;;;;;;;5054128;28;20069;-72
2021/03/31 13:30:43;;;;;;;7.53;3.17;;;;;;;;;;5018430;28;20037;-71
2021/03/31 13:33:16;;;;;;;7.55;3.72;;;;;;;;;;5016734;28;20038;-74
2021/03/31 13:36:29;;;;;;;7.38;3.05;;;;;;;;;;5018831;28;20065;-69